Time;durP1;ratioP1;P1;durP2;ratioP2;P2;SDS_P1;SDS_P2;PMS_P1;PMS_P2;Temp;Humidity;BMP_temperature;BMP_pressure;BME280_temperature;BME280_humidity;BME280_pressure;Samples;Min_cycle;Max_cycle;Signal;HPM_P1;HPM_P2
2023/01/14 00:00:53;;;;;;;2.23;0.53;;;;;;;;;;5066562;28;20218;-73
2023/01/14 00:03:21;;;;;;;2.07;0.60;;;;;;;;;;5056214;28;20222;-72
2023/01/14 00:05:55;;;;;;;3.87;0.77;;;;;;;;;;5050625;28;20243;-72
2023/01/14 00:08:22;;;;;;;2.57;0.80;;;;;;;;;;5054916;28;20279;-72
2023/01/14 00:10:50;;;;;;;8.17;1.30;;;;;;;;;;5065460;28;20239;-72
2023/01/14 00:13:17;;;;;;;2.17;0.63;;;;;;;;;;5067024;28;20223;-71
2023/01/14 00:15:50;;;;;;;1.23;0.50;;;;;;;;;;5069997;28;20792;-71
2023/01/14 00:18:17;;;;;;;3.10;0.30;;;;;;;;;;5066624;28;20222;-73
2023/01/14 00:20:45;;;;;;;2.03;1.10;;;;;;;;;;5069349;28;20252;-73
2023/01/14 00:23:12;;;;;;;4.63;0.70;;;;;;;;;;5057157;28;20198;-70
2023/01/14 00:25:39;;;;;;;3.00;1.13;;;;;;;;;;5070068;28;20210;-70
2023/01/14 00:28:06;;;;;;;0.83;0.50;;;;;;;;;;5058157;28;20207;-71
2023/01/14 00:30:33;;;;;;;3.40;0.60;;;;;;;;;;5049654;28;20242;-71
2023/01/14 00:33:00;;;;;;;4.33;0.90;;;;;;;;;;5057187;28;20243;-71
2023/01/14 00:35:27;;;;;;;5.53;0.63;;;;;;;;;;5069507;28;20195;-71
2023/01/14 00:37:57;;;;;;;0.50;0.47;;;;;;;;;;5062729;28;20676;-71
2023/01/14 00:40:24;;;;;;;7.93;1.37;;;;;;;;;;5069182;28;20206;-71
2023/01/14 00:42:51;;;;;;;0.40;0.40;;;;;;;;;;5063860;28;20735;-71
2023/01/14 00:45:18;;;;;;;3.70;0.80;;;;;;;;;;5069672;28;20214;-70
2023/01/14 00:47:45;;;;;;;4.83;0.50;;;;;;;;;;5052598;28;20682;-70
2023/01/14 00:50:12;;;;;;;1.27;0.77;;;;;;;;;;5067188;28;20324;-70
2023/01/14 00:52:39;;;;;;;1.30;0.53;;;;;;;;;;5052749;28;20261;-70
2023/01/14 00:55:08;;;;;;;4.07;0.90;;;;;;;;;;5058725;28;20628;-71
2023/01/14 00:57:35;;;;;;;2.77;0.60;;;;;;;;;;5067977;28;20227;-70
2023/01/14 01:00:02;;;;;;;2.87;0.43;;;;;;;;;;5069043;28;20207;-70
2023/01/14 01:02:29;;;;;;;1.03;0.50;;;;;;;;;;5063713;28;20203;-70
2023/01/14 01:04:56;;;;;;;3.33;0.70;;;;;;;;;;5066467;28;20202;-70
2023/01/14 01:07:23;;;;;;;4.70;0.50;;;;;;;;;;5062557;28;20256;-70
2023/01/14 01:09:50;;;;;;;3.57;0.60;;;;;;;;;;5056017;28;20227;-71
2023/01/14 01:12:18;;;;;;;0.60;0.50;;;;;;;;;;5059036;28;20219;-71
2023/01/14 01:14:47;;;;;;;3.90;0.50;;;;;;;;;;5061270;28;20211;-70
2023/01/14 01:17:14;;;;;;;1.93;0.70;;;;;;;;;;5056493;28;20199;-70
2023/01/14 01:19:41;;;;;;;2.00;0.50;;;;;;;;;;5049913;28;20261;-70
2023/01/14 01:22:08;;;;;;;3.70;0.57;;;;;;;;;;5067420;28;20281;-71
2023/01/14 01:24:35;;;;;;;5.97;0.67;;;;;;;;;;5069065;28;20211;-71
2023/01/14 01:27:02;;;;;;;1.70;0.60;;;;;;;;;;5049085;28;20199;-71
2023/01/14 01:29:31;;;;;;;1.93;0.77;;;;;;;;;;5048829;28;20289;-71
2023/01/14 01:31:58;;;;;;;2.80;0.97;;;;;;;;;;5048459;28;20199;-71
2023/01/14 01:34:25;;;;;;;1.20;0.70;;;;;;;;;;5048862;28;20203;-71
2023/01/14 01:36:52;;;;;;;1.20;0.50;;;;;;;;;;5048703;28;20204;-70
2023/01/14 01:39:19;;;;;;;6.30;0.83;;;;;;;;;;5048807;28;20208;-70
2023/01/14 01:41:46;;;;;;;5.57;1.27;;;;;;;;;;5048468;28;20845;-70
2023/01/14 01:44:28;;;;;;;1.30;0.70;;;;;;;;;;5048888;28;20223;-71
2023/01/14 01:46:56;;;;;;;2.63;0.60;;;;;;;;;;5064737;28;20207;-70
2023/01/14 01:49:24;;;;;;;3.40;0.60;;;;;;;;;;5060510;28;20207;-71
2023/01/14 01:51:52;;;;;;;1.90;0.60;;;;;;;;;;5055456;28;20278;-71
2023/01/14 01:54:20;;;;;;;2.83;0.87;;;;;;;;;;5059944;28;20207;-70
2023/01/14 01:56:48;;;;;;;2.00;0.43;;;;;;;;;;5063342;28;20227;-71
2023/01/14 01:59:17;;;;;;;0.77;0.40;;;;;;;;;;5063400;28;20200;-71
2023/01/14 02:01:44;;;;;;;1.13;0.50;;;;;;;;;;5056013;28;20229;-70
2023/01/14 02:04:13;;;;;;;7.57;1.00;;;;;;;;;;5064779;28;20688;-70
2023/01/14 02:06:40;;;;;;;3.73;0.67;;;;;;;;;;5058138;28;20203;-71
2023/01/14 02:09:07;;;;;;;3.60;0.70;;;;;;;;;;5051355;28;20204;-70
2023/01/14 02:11:46;;;;;;;0.70;0.60;;;;;;;;;;5061865;28;20203;-70
2023/01/14 02:14:18;;;;;;;4.23;0.47;;;;;;;;;;5061651;28;20227;-70
2023/01/14 02:16:50;;;;;;;4.77;1.10;;;;;;;;;;5069685;28;20203;-70
2023/01/14 02:19:24;;;;;;;1.07;0.57;;;;;;;;;;5065558;28;20662;-70
2023/01/14 02:21:58;;;;;;;1.50;0.50;;;;;;;;;;5065166;28;20254;-70
2023/01/14 02:24:36;;;;;;;4.10;0.33;;;;;;;;;;5063932;28;20222;-70
2023/01/14 02:27:16;;;;;;;4.07;0.50;;;;;;;;;;5062947;28;20203;-71
2023/01/14 02:30:01;;;;;;;3.93;0.90;;;;;;;;;;5065625;28;20309;-70
2023/01/14 02:32:32;;;;;;;2.13;0.70;;;;;;;;;;5070656;28;20251;-70
2023/01/14 02:35:04;;;;;;;5.50;0.40;;;;;;;;;;5067384;28;20241;-70
2023/01/14 02:37:35;;;;;;;3.43;0.80;;;;;;;;;;5070239;28;20211;-71
2023/01/14 02:40:04;;;;;;;2.90;0.97;;;;;;;;;;5071740;28;20210;-70
2023/01/14 02:45:21;;;;;;;1.07;0.50;;;;;;;;;;5059258;28;20253;-70
2023/01/14 02:47:50;;;;;;;0.87;0.80;;;;;;;;;;5065675;28;20253;-70
2023/01/14 02:50:17;;;;;;;5.27;0.80;;;;;;;;;;5065167;28;20573;-70
2023/01/14 02:52:44;;;;;;;1.03;0.67;;;;;;;;;;5058231;28;20223;-71
2023/01/14 02:55:29;;;;;;;4.07;0.50;;;;;;;;;;5061695;28;20199;-71
2023/01/14 02:58:03;;;;;;;7.90;0.63;;;;;;;;;;5051975;28;20219;-70
2023/01/14 03:00:33;;;;;;;3.40;0.47;;;;;;;;;;5054663;28;20207;-71
2023/01/14 03:03:13;;;;;;;3.07;0.60;;;;;;;;;;5052655;28;20241;-71
2023/01/14 03:05:47;;;;;;;1.00;0.40;;;;;;;;;;5064715;28;20203;-70
2023/01/14 03:08:18;;;;;;;6.00;1.07;;;;;;;;;;5068495;28;20206;-70
2023/01/14 03:10:47;;;;;;;1.33;0.53;;;;;;;;;;5060958;28;20254;-70
2023/01/14 03:13:23;;;;;;;0.60;0.40;;;;;;;;;;5068359;28;20252;-71
2023/01/14 03:15:54;;;;;;;1.90;0.90;;;;;;;;;;5052545;28;20196;-70
2023/01/14 03:18:25;;;;;;;1.97;0.80;;;;;;;;;;5053183;28;20687;-70
2023/01/14 03:20:54;;;;;;;2.03;0.70;;;;;;;;;;5068267;28;20227;-70
2023/01/14 03:23:22;;;;;;;0.30;0.30;;;;;;;;;;5068259;28;20613;-69
2023/01/14 03:25:50;;;;;;;2.03;0.63;;;;;;;;;;5058862;28;20214;-70
2023/01/14 03:28:19;;;;;;;2.30;0.43;;;;;;;;;;5060732;28;20207;-70
2023/01/14 03:30:50;;;;;;;4.00;0.47;;;;;;;;;;5070888;28;20210;-70
2023/01/14 03:33:20;;;;;;;4.70;0.77;;;;;;;;;;5060017;28;20297;-71
2023/01/14 03:35:49;;;;;;;0.73;0.57;;;;;;;;;;5050864;28;20212;-71
2023/01/14 03:38:18;;;;;;;2.80;0.33;;;;;;;;;;5060207;28;20203;-71
2023/01/14 03:40:46;;;;;;;1.60;0.77;;;;;;;;;;5069226;28;20200;-71
2023/01/14 03:43:17;;;;;;;1.07;0.53;;;;;;;;;;5060308;28;20199;-71
2023/01/14 03:45:46;;;;;;;4.23;0.43;;;;;;;;;;5056626;28;20227;-71
2023/01/14 03:48:13;;;;;;;0.33;0.33;;;;;;;;;;5058038;28;20218;-70
2023/01/14 03:50:45;;;;;;;3.60;0.53;;;;;;;;;;5070399;28;20207;-71
2023/01/14 03:53:19;;;;;;;2.43;0.50;;;;;;;;;;5066159;28;20223;-71
2023/01/14 03:55:52;;;;;;;9.50;1.10;;;;;;;;;;5068084;28;20233;-70
2023/01/14 03:58:21;;;;;;;1.63;0.70;;;;;;;;;;5058051;28;20684;-70
2023/01/14 04:00:51;;;;;;;5.10;0.63;;;;;;;;;;5050674;28;20204;-71
2023/01/14 04:03:18;;;;;;;2.50;0.67;;;;;;;;;;5056667;28;20207;-71
2023/01/14 04:05:46;;;;;;;11.10;0.67;;;;;;;;;;5050853;28;20211;-71
2023/01/14 04:08:14;;;;;;;2.03;0.70;;;;;;;;;;5053453;28;20203;-70
2023/01/14 04:10:41;;;;;;;1.60;0.73;;;;;;;;;;5062706;28;20235;-70
2023/01/14 04:15:53;;;;;;;2.73;0.50;;;;;;;;;;5050411;28;20215;-70
2023/01/14 04:18:20;;;;;;;1.63;0.67;;;;;;;;;;5056507;28;20638;-70
2023/01/14 04:20:47;;;;;;;2.40;1.00;;;;;;;;;;5060376;28;20210;-70
2023/01/14 04:23:15;;;;;;;4.53;1.27;;;;;;;;;;5067726;28;20261;-70
2023/01/14 04:25:42;;;;;;;0.40;0.40;;;;;;;;;;5067916;28;20206;-71
2023/01/14 04:28:09;;;;;;;2.70;1.13;;;;;;;;;;5055170;28;20214;-70
2023/01/14 04:30:45;;;;;;;4.60;0.70;;;;;;;;;;5050145;28;20626;-71
2023/01/14 04:33:12;;;;;;;8.40;0.77;;;;;;;;;;5050299;28;20231;-71
2023/01/14 04:35:39;;;;;;;6.30;0.93;;;;;;;;;;5049984;28;20211;-70
2023/01/14 04:38:06;;;;;;;2.97;0.63;;;;;;;;;;5058009;28;20199;-70
2023/01/14 04:40:34;;;;;;;1.70;0.67;;;;;;;;;;5068090;28;20207;-71
2023/01/14 04:43:01;;;;;;;3.50;0.90;;;;;;;;;;5064554;28;20200;-70
2023/01/14 04:45:29;;;;;;;0.90;0.90;;;;;;;;;;5053460;28;20222;-70
2023/01/14 04:47:56;;;;;;;1.40;0.60;;;;;;;;;;5065105;28;20199;-71
2023/01/14 04:50:33;;;;;;;2.70;0.77;;;;;;;;;;5062027;28;20681;-70
2023/01/14 04:53:10;;;;;;;4.33;0.90;;;;;;;;;;5050673;28;20761;-70
2023/01/14 04:55:40;;;;;;;1.60;0.40;;;;;;;;;;5064458;28;20230;-71
2023/01/14 04:58:07;;;;;;;2.50;0.60;;;;;;;;;;5064187;28;20204;-70
2023/01/14 05:00:35;;;;;;;2.43;0.50;;;;;;;;;;5052463;28;20749;-70
2023/01/14 05:03:03;;;;;;;1.27;0.60;;;;;;;;;;5054258;28;20203;-70
2023/01/14 05:05:30;;;;;;;1.00;0.37;;;;;;;;;;5064889;28;20295;-72
2023/01/14 05:07:57;;;;;;;1.50;0.63;;;;;;;;;;5061213;28;20227;-71
2023/01/14 05:10:24;;;;;;;2.53;0.43;;;;;;;;;;5059306;28;20767;-71
2023/01/14 05:13:00;;;;;;;4.57;0.40;;;;;;;;;;5066840;28;20203;-71
2023/01/14 05:15:28;;;;;;;1.90;0.40;;;;;;;;;;5068143;28;20306;-71
2023/01/14 05:17:55;;;;;;;1.63;0.50;;;;;;;;;;5065722;28;20634;-71
2023/01/14 05:20:23;;;;;;;6.23;1.20;;;;;;;;;;5062861;28;20226;-71
2023/01/14 05:22:50;;;;;;;5.30;1.10;;;;;;;;;;5066774;28;20723;-71
2023/01/14 05:25:17;;;;;;;6.30;1.03;;;;;;;;;;5049636;28;20207;-71
2023/01/14 05:27:44;;;;;;;4.50;1.10;;;;;;;;;;5052188;28;20269;-71
2023/01/14 05:30:13;;;;;;;4.97;0.83;;;;;;;;;;5062517;28;20203;-71
2023/01/14 05:32:40;;;;;;;4.10;0.93;;;;;;;;;;5063873;28;20208;-71
2023/01/14 05:35:07;;;;;;;1.80;0.80;;;;;;;;;;5049746;28;20276;-71
2023/01/14 05:37:35;;;;;;;3.20;0.70;;;;;;;;;;5052026;28;20204;-71
2023/01/14 05:40:02;;;;;;;1.70;0.50;;;;;;;;;;5067191;28;20677;-71
2023/01/14 05:48:01;;;;;;;11.27;1.00;;;;;;;;;;5049665;28;20684;-72
2023/01/14 05:50:28;;;;;;;6.93;0.90;;;;;;;;;;5054791;28;20216;-71
2023/01/14 05:52:55;;;;;;;5.73;1.13;;;;;;;;;;5066413;28;20240;-71
2023/01/14 05:55:22;;;;;;;3.13;0.77;;;;;;;;;;5062467;28;20230;-71
2023/01/14 05:57:49;;;;;;;5.80;1.00;;;;;;;;;;5064183;28;20199;-72
2023/01/14 06:08:28;;;;;;;3.93;1.30;;;;;;;;;;5053187;28;20206;-72
2023/01/14 06:10:56;;;;;;;1.33;0.87;;;;;;;;;;5063730;28;20239;-71
2023/01/14 06:13:23;;;;;;;6.53;1.47;;;;;;;;;;5072540;28;20206;-72
2023/01/14 06:15:55;;;;;;;6.57;0.70;;;;;;;;;;5060711;28;20200;-72
2023/01/14 06:18:23;;;;;;;1.87;1.00;;;;;;;;;;5057770;28;20248;-71
2023/01/14 06:20:50;;;;;;;3.17;0.80;;;;;;;;;;5055878;28;20290;-72
2023/01/14 06:23:17;;;;;;;1.93;0.73;;;;;;;;;;5067577;28;20207;-72
2023/01/14 06:25:45;;;;;;;2.17;0.53;;;;;;;;;;5052632;28;20211;-71
2023/01/14 06:28:12;;;;;;;2.47;0.80;;;;;;;;;;5064526;28;20207;-71
2023/01/14 06:30:39;;;;;;;5.27;0.83;;;;;;;;;;5054947;28;20207;-72
2023/01/14 06:33:08;;;;;;;1.60;0.80;;;;;;;;;;5056009;28;20195;-71
2023/01/14 06:35:35;;;;;;;2.73;0.87;;;;;;;;;;5055861;28;20230;-72
2023/01/14 06:38:02;;;;;;;4.00;0.80;;;;;;;;;;5066576;28;20203;-71
2023/01/14 06:40:29;;;;;;;5.97;1.00;;;;;;;;;;5072180;28;20764;-72
2023/01/14 06:42:56;;;;;;;2.23;0.60;;;;;;;;;;5071169;28;20212;-72
2023/01/14 06:45:24;;;;;;;8.23;1.13;;;;;;;;;;5071852;28;20210;-72
2023/01/14 06:47:51;;;;;;;9.10;0.90;;;;;;;;;;5068721;28;20207;-72
2023/01/14 06:50:20;;;;;;;2.90;0.43;;;;;;;;;;5061827;28;20238;-72
2023/01/14 06:52:48;;;;;;;5.40;0.53;;;;;;;;;;5069843;28;20276;-70
2023/01/14 06:55:15;;;;;;;3.97;0.90;;;;;;;;;;5068309;28;20318;-70
2023/01/14 06:57:43;;;;;;;4.97;1.07;;;;;;;;;;5051095;28;20313;-71
2023/01/14 07:00:11;;;;;;;7.47;1.63;;;;;;;;;;5053531;28;20207;-72
2023/01/14 07:02:38;;;;;;;6.00;0.67;;;;;;;;;;5061864;28;20688;-70
2023/01/14 07:05:06;;;;;;;3.60;0.50;;;;;;;;;;5065532;28;20542;-71
2023/01/14 07:07:34;;;;;;;2.97;0.70;;;;;;;;;;5060149;28;20207;-71
2023/01/14 07:10:01;;;;;;;4.33;0.80;;;;;;;;;;5060577;28;20240;-71
2023/01/14 07:12:28;;;;;;;3.93;1.23;;;;;;;;;;5058767;28;20635;-71
2023/01/14 07:14:55;;;;;;;1.00;0.47;;;;;;;;;;5059339;28;20230;-71
2023/01/14 07:17:22;;;;;;;5.03;0.97;;;;;;;;;;5061717;28;20351;-71
2023/01/14 07:19:49;;;;;;;2.83;0.90;;;;;;;;;;5068122;28;20202;-72
2023/01/14 07:22:16;;;;;;;5.70;1.53;;;;;;;;;;5066594;28;20207;-71
2023/01/14 07:24:44;;;;;;;2.20;0.60;;;;;;;;;;5051405;28;20576;-71
2023/01/14 07:27:11;;;;;;;4.03;0.83;;;;;;;;;;5061177;28;20212;-72
2023/01/14 07:29:38;;;;;;;4.33;1.13;;;;;;;;;;5056593;28;20610;-71
2023/01/14 07:32:05;;;;;;;3.57;1.10;;;;;;;;;;5067510;28;20202;-72
2023/01/14 07:34:32;;;;;;;4.80;0.87;;;;;;;;;;5051157;28;20231;-71
2023/01/14 07:36:59;;;;;;;3.40;0.40;;;;;;;;;;5050708;28;20746;-72
2023/01/14 07:39:26;;;;;;;3.03;0.60;;;;;;;;;;5059368;28;20219;-71
2023/01/14 07:41:55;;;;;;;6.87;0.70;;;;;;;;;;5052439;28;20631;-71
2023/01/14 07:44:23;;;;;;;0.80;0.60;;;;;;;;;;5054032;28;20283;-72
2023/01/14 07:46:52;;;;;;;8.63;1.00;;;;;;;;;;5069834;28;20199;-72
2023/01/14 07:49:19;;;;;;;0.97;0.60;;;;;;;;;;5069797;28;20210;-72
2023/01/14 07:51:46;;;;;;;4.57;0.60;;;;;;;;;;5052983;28;20257;-72
2023/01/14 07:54:13;;;;;;;9.00;1.73;;;;;;;;;;5053058;28;20223;-74
2023/01/14 07:56:40;;;;;;;5.77;0.83;;;;;;;;;;5051782;28;20678;-72
2023/01/14 07:59:09;;;;;;;7.00;0.70;;;;;;;;;;5068467;28;20203;-72
2023/01/14 08:01:36;;;;;;;3.73;0.80;;;;;;;;;;5067148;28;20210;-72
2023/01/14 08:04:03;;;;;;;0.70;0.60;;;;;;;;;;5065330;28;20199;-72
2023/01/14 08:06:31;;;;;;;2.23;0.93;;;;;;;;;;5062516;28;20207;-72
2023/01/14 08:09:01;;;;;;;2.90;1.03;;;;;;;;;;5063549;28;20221;-71
2023/01/14 08:11:28;;;;;;;6.80;0.80;;;;;;;;;;5052882;28;20650;-70
2023/01/14 08:13:55;;;;;;;0.67;0.67;;;;;;;;;;5058066;28;20204;-71
2023/01/14 08:16:25;;;;;;;2.80;0.77;;;;;;;;;;5057995;28;20203;-71
2023/01/14 08:18:53;;;;;;;2.10;0.67;;;;;;;;;;5062297;28;20275;-71
2023/01/14 08:21:21;;;;;;;4.17;0.87;;;;;;;;;;5054625;28;20199;-71
2023/01/14 08:23:49;;;;;;;1.80;0.43;;;;;;;;;;5063056;28;20626;-71
2023/01/14 08:26:16;;;;;;;1.10;0.60;;;;;;;;;;5070540;28;20211;-71
2023/01/14 08:28:47;;;;;;;4.97;0.70;;;;;;;;;;5056929;28;20234;-71
2023/01/14 08:31:18;;;;;;;2.30;0.60;;;;;;;;;;5067361;28;20203;-72
2023/01/14 08:33:47;;;;;;;4.63;1.57;;;;;;;;;;5057783;28;20264;-71
2023/01/14 08:36:15;;;;;;;3.73;1.13;;;;;;;;;;5069528;28;20223;-71
2023/01/14 08:38:44;;;;;;;4.77;0.90;;;;;;;;;;5069970;28;20203;-70
2023/01/14 08:41:13;;;;;;;6.50;0.97;;;;;;;;;;5053603;28;20565;-72
2023/01/14 08:43:41;;;;;;;10.20;0.77;;;;;;;;;;5064195;28;20207;-71
2023/01/14 08:46:09;;;;;;;6.67;0.67;;;;;;;;;;5050742;28;20655;-71
2023/01/14 08:48:37;;;;;;;11.43;1.60;;;;;;;;;;5051125;28;20207;-71
2023/01/14 08:51:09;;;;;;;2.03;0.70;;;;;;;;;;5059690;28;20724;-72
2023/01/14 08:53:37;;;;;;;4.47;0.70;;;;;;;;;;5072869;28;20207;-71
2023/01/14 08:56:06;;;;;;;2.80;2.30;;;;;;;;;;5071495;28;20385;-71
2023/01/14 08:58:35;;;;;;;3.53;0.57;;;;;;;;;;5070288;28;20211;-71
2023/01/14 09:01:04;;;;;;;5.57;1.10;;;;;;;;;;5066118;28;20200;-71
2023/01/14 09:03:33;;;;;;;6.43;0.97;;;;;;;;;;5071804;28;20984;-71
2023/01/14 09:06:01;;;;;;;0.60;0.60;;;;;;;;;;5056160;28;20256;-71
2023/01/14 09:19:33;;;;;;;1.90;0.50;;;;;;;;;;5061273;28;20265;-72
2023/01/14 09:22:00;;;;;;;3.50;0.83;;;;;;;;;;5057619;28;20298;-72
2023/01/14 09:24:29;;;;;;;3.00;0.70;;;;;;;;;;5074078;28;20203;-70
2023/01/14 09:26:57;;;;;;;0.30;0.30;;;;;;;;;;5063941;28;20199;-73
2023/01/14 09:29:25;;;;;;;2.87;0.60;;;;;;;;;;5065902;28;20225;-73
2023/01/14 09:31:52;;;;;;;1.70;0.47;;;;;;;;;;5072547;28;20198;-72
2023/01/14 09:34:21;;;;;;;4.47;1.13;;;;;;;;;;5061336;28;20206;-73
2023/01/14 09:36:49;;;;;;;0.70;0.60;;;;;;;;;;5053579;28;20203;-71
2023/01/14 09:39:16;;;;;;;7.60;0.50;;;;;;;;;;5053230;28;20229;-70
2023/01/14 09:41:49;;;;;;;0.77;0.40;;;;;;;;;;5053281;28;20215;-71
2023/01/14 09:44:20;;;;;;;2.83;0.20;;;;;;;;;;5053251;28;20826;-71
2023/01/14 09:46:47;;;;;;;1.30;0.80;;;;;;;;;;5054724;28;20207;-71
2023/01/14 09:49:16;;;;;;;1.53;0.43;;;;;;;;;;5060210;28;20670;-73
2023/01/14 09:51:52;;;;;;;1.57;0.40;;;;;;;;;;5058050;28;20208;-68
2023/01/14 09:54:22;;;;;;;3.30;0.50;;;;;;;;;;5068068;28;20214;-72
2023/01/14 09:56:53;;;;;;;1.27;0.60;;;;;;;;;;5062311;28;20804;-71
2023/01/14 09:59:25;;;;;;;1.07;0.47;;;;;;;;;;5065943;28;20220;-70
2023/01/14 10:01:56;;;;;;;0.93;0.30;;;;;;;;;;5060197;28;20685;-71
2023/01/14 10:04:35;;;;;;;1.73;0.30;;;;;;;;;;5072183;28;20264;-71
2023/01/14 10:07:04;;;;;;;1.93;0.90;;;;;;;;;;5068462;28;20547;-72
2023/01/14 10:09:34;;;;;;;0.30;0.30;;;;;;;;;;5069123;28;20246;-71
2023/01/14 10:12:04;;;;;;;1.23;0.50;;;;;;;;;;5052801;28;20208;-70
2023/01/14 10:14:34;;;;;;;1.23;0.40;;;;;;;;;;5059897;28;20272;-70
2023/01/14 10:17:05;;;;;;;0.50;0.47;;;;;;;;;;5067309;28;20206;-72
2023/01/14 10:19:36;;;;;;;5.77;0.40;;;;;;;;;;5070145;28;20215;-72
2023/01/14 10:22:07;;;;;;;4.80;0.60;;;;;;;;;;5068146;28;20199;-69
2023/01/14 10:24:34;;;;;;;2.40;0.40;;;;;;;;;;5064750;28;20207;-72
2023/01/14 10:27:03;;;;;;;1.60;0.30;;;;;;;;;;5055776;28;20199;-71
2023/01/14 10:29:32;;;;;;;2.47;0.50;;;;;;;;;;5072175;28;20297;-71
2023/01/14 10:32:01;;;;;;;2.47;0.30;;;;;;;;;;5061710;28;20204;-76
2023/01/14 10:34:30;;;;;;;4.93;0.40;;;;;;;;;;5050070;28;20213;-73
2023/01/14 10:36:57;;;;;;;1.57;0.30;;;;;;;;;;5068568;28;20288;-71
2023/01/14 10:39:24;;;;;;;0.20;0.20;;;;;;;;;;5069155;28;20604;-69
2023/01/14 10:41:51;;;;;;;0.43;0.40;;;;;;;;;;5071446;28;20211;-73
2023/01/14 10:44:23;;;;;;;1.20;0.50;;;;;;;;;;5056389;28;20667;-70
2023/01/14 10:46:50;;;;;;;0.67;0.50;;;;;;;;;;5054215;28;20298;-72
2023/01/14 10:49:18;;;;;;;1.33;0.47;;;;;;;;;;5053355;28;20215;-72
2023/01/14 10:51:49;;;;;;;1.10;0.60;;;;;;;;;;5061671;28;20265;-72
2023/01/14 10:54:17;;;;;;;0.53;0.53;;;;;;;;;;5065321;28;20210;-72
2023/01/14 10:56:47;;;;;;;3.30;0.50;;;;;;;;;;5070897;28;20645;-72
2023/01/14 10:59:28;;;;;;;1.60;0.30;;;;;;;;;;5069484;28;20211;-72
2023/01/14 11:01:55;;;;;;;1.80;0.27;;;;;;;;;;5071611;28;20210;-72
2023/01/14 11:04:23;;;;;;;0.67;0.40;;;;;;;;;;5056787;28;20586;-72
2023/01/14 11:06:50;;;;;;;0.70;0.30;;;;;;;;;;5071553;28;20264;-72
2023/01/14 11:09:19;;;;;;;2.23;0.80;;;;;;;;;;5067651;28;20238;-72
2023/01/14 11:11:46;;;;;;;0.47;0.47;;;;;;;;;;5051306;28;20207;-72
2023/01/14 11:14:19;;;;;;;1.17;0.83;;;;;;;;;;5067111;28;20615;-72
2023/01/14 11:16:47;;;;;;;1.03;0.40;;;;;;;;;;5050944;28;20265;-72
2023/01/14 11:19:20;;;;;;;3.87;0.63;;;;;;;;;;5053259;28;20743;-72
2023/01/14 11:21:48;;;;;;;4.57;0.83;;;;;;;;;;5071242;28;20302;-73
2023/01/14 11:24:23;;;;;;;0.87;0.70;;;;;;;;;;5070665;28;20203;-75
2023/01/14 11:26:50;;;;;;;2.43;0.53;;;;;;;;;;5071235;28;20202;-73
2023/01/14 11:29:21;;;;;;;6.53;1.00;;;;;;;;;;5055423;28;20662;-73
2023/01/14 11:31:51;;;;;;;0.40;0.40;;;;;;;;;;5054855;28;20208;-72
2023/01/14 11:34:22;;;;;;;5.17;0.63;;;;;;;;;;5066045;28;20207;-75
2023/01/14 11:37:26;;;;;;;3.60;0.83;;;;;;;;;;5064396;28;20224;-73
2023/01/14 11:39:54;;;;;;;0.40;0.40;;;;;;;;;;5048831;28;20217;-73
2023/01/14 11:42:31;;;;;;;0.50;0.50;;;;;;;;;;5058032;28;20209;-73
2023/01/14 11:44:59;;;;;;;0.60;0.60;;;;;;;;;;5061722;28;20272;-73
2023/01/14 11:47:29;;;;;;;2.20;0.53;;;;;;;;;;5057236;28;20223;-73
2023/01/14 11:50:12;;;;;;;3.93;0.60;;;;;;;;;;5063937;28;20211;-73
2023/01/14 11:52:39;;;;;;;2.90;0.50;;;;;;;;;;5060951;28;20214;-73
2023/01/14 11:55:13;;;;;;;3.60;0.40;;;;;;;;;;5056401;28;20246;-74
2023/01/14 11:57:42;;;;;;;2.10;0.50;;;;;;;;;;5052716;28;20201;-73
2023/01/14 12:00:10;;;;;;;3.50;0.50;;;;;;;;;;5068104;28;20211;-74
2023/01/14 12:02:40;;;;;;;5.30;0.60;;;;;;;;;;5052798;28;20211;-72
2023/01/14 12:05:12;;;;;;;1.10;0.60;;;;;;;;;;5050617;28;20218;-74
2023/01/14 12:07:41;;;;;;;2.83;0.53;;;;;;;;;;5051441;28;20208;-72
2023/01/14 12:10:15;;;;;;;0.97;0.47;;;;;;;;;;5055180;28;20247;-77
2023/01/14 12:18:28;;;;;;;1.97;0.50;;;;;;;;;;5049691;28;20203;-77
2023/01/14 12:20:55;;;;;;;2.47;0.40;;;;;;;;;;5060844;28;20211;-76
2023/01/14 12:23:24;;;;;;;2.73;0.83;;;;;;;;;;5064660;28;20233;-73
2023/01/14 12:25:53;;;;;;;0.70;0.43;;;;;;;;;;5069316;28;20237;-73
2023/01/14 12:28:25;;;;;;;0.50;0.50;;;;;;;;;;5070178;28;20619;-75
2023/01/14 12:30:53;;;;;;;0.27;0.27;;;;;;;;;;5061920;28;20204;-75
2023/01/14 12:33:31;;;;;;;0.70;0.70;;;;;;;;;;5049701;28;20204;-75
2023/01/14 12:36:01;;;;;;;0.67;0.20;;;;;;;;;;5059776;28;20360;-68
2023/01/14 12:46:50;;;;;;;1.73;0.40;;;;;;;;;;5054845;28;20202;-74
2023/01/14 12:49:19;;;;;;;0.50;0.50;;;;;;;;;;5061520;28;20692;-77
2023/01/14 12:51:47;;;;;;;0.30;0.30;;;;;;;;;;5064797;28;20310;-75
2023/01/14 12:54:22;;;;;;;0.47;0.47;;;;;;;;;;5057503;28;20237;-75
2023/01/14 12:56:51;;;;;;;0.43;0.40;;;;;;;;;;5064657;28;20235;-76
2023/01/14 12:59:21;;;;;;;1.93;0.50;;;;;;;;;;5056563;28;20207;-74
2023/01/14 13:01:52;;;;;;;2.53;0.40;;;;;;;;;;5056852;28;20269;-75
2023/01/14 13:04:22;;;;;;;0.97;0.20;;;;;;;;;;5061763;28;20686;-72
2023/01/14 13:06:53;;;;;;;0.40;0.40;;;;;;;;;;5064247;28;20202;-72
2023/01/14 13:09:22;;;;;;;3.20;0.43;;;;;;;;;;5052473;28;20242;-76
2023/01/14 13:11:52;;;;;;;0.93;0.40;;;;;;;;;;5067572;28;20203;-73
2023/01/14 13:14:21;;;;;;;0.40;0.40;;;;;;;;;;5062454;28;20203;-75
2023/01/14 13:16:48;;;;;;;1.53;0.63;;;;;;;;;;5051354;28;20750;-75
2023/01/14 13:19:35;;;;;;;0.37;0.37;;;;;;;;;;5069016;28;20230;-76
2023/01/14 13:22:03;;;;;;;0.40;0.40;;;;;;;;;;5050523;28;20206;-74
2023/01/14 13:24:34;;;;;;;0.50;0.30;;;;;;;;;;5049132;28;20211;-78
2023/01/14 13:27:03;;;;;;;2.87;0.43;;;;;;;;;;5050958;28;20200;-78
2023/01/14 13:29:31;;;;;;;1.20;0.50;;;;;;;;;;5067613;28;20203;-76
2023/01/14 13:31:59;;;;;;;0.90;0.77;;;;;;;;;;5067900;28;20210;-79
2023/01/14 13:34:37;;;;;;;2.43;0.40;;;;;;;;;;5048883;28;20203;-77
2023/01/14 13:37:19;;;;;;;0.37;0.17;;;;;;;;;;5065059;28;20356;-78
2023/01/14 13:39:50;;;;;;;1.03;0.50;;;;;;;;;;5047516;28;20211;-78
2023/01/14 13:42:22;;;;;;;0.30;0.30;;;;;;;;;;5064366;28;20207;-78
2023/01/14 13:44:51;;;;;;;0.40;0.20;;;;;;;;;;5050247;28;20282;-79
2023/01/14 13:47:20;;;;;;;1.60;0.70;;;;;;;;;;5068191;28;20289;-77
2023/01/14 13:49:56;;;;;;;0.50;0.37;;;;;;;;;;5063377;28;20215;-77
2023/01/14 13:52:25;;;;;;;1.37;0.63;;;;;;;;;;5052397;28;20610;-78
2023/01/14 13:54:55;;;;;;;3.40;0.53;;;;;;;;;;5067739;28;20199;-79
2023/01/14 13:57:25;;;;;;;0.30;0.30;;;;;;;;;;5047475;28;20236;-79
2023/01/14 13:59:55;;;;;;;1.33;0.40;;;;;;;;;;5054431;28;20211;-79
2023/01/14 14:02:41;;;;;;;3.33;0.50;;;;;;;;;;5049180;28;20212;-80
2023/01/14 14:05:16;;;;;;;1.17;0.50;;;;;;;;;;5051660;28;20307;-80
2023/01/14 14:08:00;;;;;;;0.30;0.30;;;;;;;;;;5069230;28;20211;-79
2023/01/14 14:10:28;;;;;;;0.50;0.50;;;;;;;;;;5063558;28;20791;-78
2023/01/14 14:16:00;;;;;;;0.57;0.50;;;;;;;;;;5058648;28;20649;-76
2023/01/14 14:18:30;;;;;;;0.40;0.40;;;;;;;;;;5072632;28;20211;-77
2023/01/14 14:21:06;;;;;;;4.53;0.60;;;;;;;;;;5063072;28;20204;-74
2023/01/14 14:23:36;;;;;;;1.80;0.50;;;;;;;;;;5052808;28;20210;-73
2023/01/14 14:26:05;;;;;;;0.53;0.53;;;;;;;;;;5068781;28;20195;-73
2023/01/14 14:31:14;;;;;;;0.30;0.27;;;;;;;;;;5047381;28;20204;-77
2023/01/14 14:33:42;;;;;;;0.83;0.50;;;;;;;;;;5053698;28;20306;-74
2023/01/14 14:36:15;;;;;;;1.50;0.47;;;;;;;;;;5052277;28;20227;-74
2023/01/14 14:38:45;;;;;;;0.97;0.50;;;;;;;;;;5060106;28;20302;-73
2023/01/14 14:41:15;;;;;;;0.83;0.40;;;;;;;;;;5071473;28;20207;-68
2023/01/14 14:43:44;;;;;;;0.60;0.60;;;;;;;;;;5060233;28;20204;-72
2023/01/14 14:46:12;;;;;;;4.77;0.63;;;;;;;;;;5071721;28;20238;-73
2023/01/14 14:48:40;;;;;;;0.80;0.80;;;;;;;;;;5063164;28;20749;-73
2023/01/14 14:51:24;;;;;;;3.53;0.83;;;;;;;;;;5062891;28;20215;-73
2023/01/14 14:53:51;;;;;;;0.50;0.50;;;;;;;;;;5070302;28;20203;-72
2023/01/14 14:56:19;;;;;;;0.60;0.60;;;;;;;;;;5054012;28;20231;-73
2023/01/14 14:58:47;;;;;;;0.87;0.43;;;;;;;;;;5061023;28;20203;-73
2023/01/14 15:01:15;;;;;;;0.60;0.60;;;;;;;;;;5054706;28;20684;-73
2023/01/14 15:03:43;;;;;;;0.43;0.43;;;;;;;;;;5052977;28;20211;-75
2023/01/14 15:06:12;;;;;;;0.97;0.60;;;;;;;;;;5059710;28;20203;-74
2023/01/14 15:08:42;;;;;;;0.47;0.47;;;;;;;;;;5067714;28;20206;-73
2023/01/14 15:11:11;;;;;;;0.60;0.60;;;;;;;;;;5066740;28;20300;-75
2023/01/14 15:13:39;;;;;;;0.30;0.30;;;;;;;;;;5052090;28;20212;-73
2023/01/14 15:16:07;;;;;;;0.83;0.83;;;;;;;;;;5052135;28;20307;-73
2023/01/14 15:18:36;;;;;;;0.40;0.30;;;;;;;;;;5062447;28;20206;-73
2023/01/14 15:21:04;;;;;;;0.27;0.27;;;;;;;;;;5058403;28;20204;-72
2023/01/14 15:23:32;;;;;;;2.57;0.43;;;;;;;;;;5050848;28;20340;-73
2023/01/14 15:26:01;;;;;;;1.30;0.40;;;;;;;;;;5059378;28;20219;-72
2023/01/14 15:28:28;;;;;;;0.50;0.37;;;;;;;;;;5056398;28;20662;-72
2023/01/14 15:30:56;;;;;;;0.40;0.40;;;;;;;;;;5061164;28;20218;-73
2023/01/14 15:33:27;;;;;;;2.43;0.40;;;;;;;;;;5068763;28;20645;-72
2023/01/14 15:35:59;;;;;;;1.50;0.50;;;;;;;;;;5059062;28;20287;-73
2023/01/14 15:38:27;;;;;;;0.50;0.50;;;;;;;;;;5066095;28;20203;-74
2023/01/14 15:40:54;;;;;;;0.87;0.77;;;;;;;;;;5070794;28;20219;-75
2023/01/14 15:43:24;;;;;;;0.57;0.30;;;;;;;;;;5068596;28;20306;-72
2023/01/14 15:45:52;;;;;;;1.07;0.70;;;;;;;;;;5069302;28;20690;-72